createdAt,value
2022-08-06T00:00:03.503Z,2.70
2022-08-06T00:02:29.274Z,2.45
2022-08-06T00:04:59.651Z,2.90
2022-08-06T00:07:28.538Z,2.30
2022-08-06T00:10:01.723Z,2.20
2022-08-06T00:12:35.115Z,2.80
2022-08-06T00:15:13.432Z,2.35
2022-08-06T00:17:44.988Z,2.63
2022-08-06T00:20:25.876Z,2.20
2022-08-06T00:23:00.826Z,2.10
2022-08-06T00:25:28.341Z,2.15
2022-08-06T00:27:55.071Z,2.30
2022-08-06T00:30:26.410Z,2.55
2022-08-06T00:32:57.299Z,1.98
2022-08-06T00:35:28.947Z,2.05
2022-08-06T00:37:58.651Z,2.05
2022-08-06T00:40:29.661Z,2.00
2022-08-06T00:43:06.028Z,2.00
2022-08-06T00:45:45.526Z,2.13
2022-08-06T00:48:31.473Z,2.00
2022-08-06T00:51:02.004Z,2.33
2022-08-06T00:53:34.191Z,1.80
2022-08-06T00:56:08.983Z,1.80
2022-08-06T00:58:40.181Z,2.10
2022-08-06T01:01:17.474Z,2.28
2022-08-06T01:03:51.552Z,2.10
2022-08-06T01:06:56.480Z,2.25
2022-08-06T01:09:11.490Z,2.03
2022-08-06T01:11:39.644Z,2.25
2022-08-06T01:14:10.296Z,2.00
2022-08-06T01:16:58.822Z,1.98
2022-08-06T01:21:20.695Z,2.20
2022-08-06T01:22:40.919Z,2.00
2022-08-06T01:25:46.349Z,2.40
2022-08-06T01:28:38.286Z,2.25
2022-08-06T01:31:11.895Z,2.40
2022-08-06T01:33:48.114Z,2.10
2022-08-06T01:36:31.318Z,2.15
2022-08-06T01:39:01.613Z,2.10
2022-08-06T01:41:54.825Z,2.25
2022-08-06T01:44:30.012Z,2.25
2022-08-06T01:47:00.894Z,2.10
2022-08-06T01:50:01.248Z,2.00
2022-08-06T01:52:30.031Z,2.20
2022-08-06T01:54:59.776Z,2.30
2022-08-06T01:57:32.897Z,2.30
2022-08-06T02:00:16.180Z,2.20
2022-08-06T02:02:44.679Z,2.35
2022-08-06T02:05:14.102Z,2.40
2022-08-06T02:08:36.886Z,2.30
2022-08-06T02:10:36.192Z,2.35
2022-08-06T02:13:05.678Z,2.42
2022-08-06T02:15:56.298Z,2.78
2022-08-06T02:18:34.361Z,2.58
2022-08-06T02:21:18.647Z,3.00
2022-08-06T02:23:55.073Z,2.67
2022-08-06T02:26:25.995Z,2.42
2022-08-06T02:29:01.029Z,2.90
2022-08-06T02:31:27.570Z,2.50
2022-08-06T02:34:02.555Z,2.55
2022-08-06T02:36:51.049Z,3.22
2022-08-06T02:39:29.915Z,3.70
2022-08-06T02:42:40.385Z,3.60
2022-08-06T02:45:18.587Z,3.60
2022-08-06T02:48:02.281Z,3.72
2022-08-06T02:50:42.393Z,3.60
2022-08-06T02:53:25.031Z,3.43
2022-08-06T02:56:12.306Z,3.28
2022-08-06T02:58:58.247Z,3.25
2022-08-06T03:01:43.007Z,3.28
2022-08-06T03:04:11.524Z,3.40
2022-08-06T03:06:42.101Z,3.08
2022-08-06T03:09:15.169Z,3.03
2022-08-06T03:14:12.855Z,2.47
2022-08-06T03:16:59.771Z,2.70
2022-08-06T03:19:57.566Z,2.42
2022-08-06T03:22:35.985Z,2.72
2022-08-06T03:25:06.799Z,2.50
2022-08-06T03:27:42.667Z,2.55
2022-08-06T03:30:32.394Z,2.70
2022-08-06T03:33:28.728Z,2.90
2022-08-06T03:36:00.633Z,2.63
2022-08-06T03:38:30.157Z,2.58
2022-08-06T03:41:01.010Z,2.55
2022-08-06T03:43:46.216Z,2.40
2022-08-06T03:46:20.981Z,2.38
2022-08-06T03:51:29.737Z,2.60
2022-08-06T03:54:08.960Z,2.35
2022-08-06T03:56:38.181Z,2.15
2022-08-06T03:59:07.592Z,2.08
2022-08-06T04:01:49.550Z,2.10
2022-08-06T04:04:27.394Z,2.20
2022-08-06T04:06:56.323Z,2.22
2022-08-06T04:09:57.416Z,2.10
2022-08-06T04:12:36.644Z,2.40
2022-08-06T04:15:00.128Z,2.13
2022-08-06T04:17:27.959Z,2.13
2022-08-06T04:20:00.992Z,2.13
2022-08-06T04:23:00.037Z,2.10
2022-08-06T04:25:14.558Z,2.40
2022-08-06T04:27:53.089Z,2.15
2022-08-06T04:30:25.316Z,2.60
2022-08-06T04:33:00.643Z,2.30
2022-08-06T04:36:06.715Z,2.13
2022-08-06T04:38:26.841Z,2.50
2022-08-06T04:41:03.369Z,2.58
2022-08-06T04:43:38.801Z,2.38
2022-08-06T04:46:20.855Z,2.40
2022-08-06T04:48:52.202Z,2.63
2022-08-06T04:52:35.418Z,3.08
2022-08-06T04:54:12.145Z,2.80
2022-08-06T04:56:48.530Z,2.80
2022-08-06T04:59:18.036Z,3.85
2022-08-06T05:01:57.204Z,3.55
2022-08-06T05:04:28.580Z,3.78
2022-08-06T05:06:56.124Z,3.83
2022-08-06T05:09:38.270Z,4.95
2022-08-06T05:12:40.294Z,5.15
2022-08-06T05:15:12.014Z,5.35
2022-08-06T05:17:48.680Z,4.35
2022-08-06T05:20:26.308Z,4.80
2022-08-06T05:23:02.749Z,4.95
2022-08-06T05:25:35.949Z,5.25
2022-08-06T05:28:09.880Z,5.13
2022-08-06T05:30:50.209Z,5.28
2022-08-06T05:33:38.846Z,5.60
2022-08-06T05:36:19.352Z,5.80
2022-08-06T05:38:58.847Z,6.75
2022-08-06T05:41:30.208Z,5.43
2022-08-06T05:44:01.344Z,6.28
2022-08-06T05:46:35.229Z,5.80
2022-08-06T05:49:56.314Z,6.57
2022-08-06T05:52:07.357Z,5.65
2022-08-06T05:54:45.616Z,6.68
2022-08-06T05:57:53.823Z,4.13
2022-08-06T06:00:42.168Z,5.68
2022-08-06T06:03:24.693Z,6.00
2022-08-06T06:06:07.097Z,5.75
2022-08-06T06:08:58.019Z,5.65
2022-08-06T06:11:55.291Z,6.30
2022-08-06T06:14:38.025Z,6.45
2022-08-06T06:17:07.766Z,5.53
2022-08-06T06:19:56.865Z,6.47
2022-08-06T06:22:27.583Z,6.40
2022-08-06T06:25:11.054Z,5.70
2022-08-06T06:27:46.846Z,5.70
2022-08-06T06:30:39.976Z,5.32
2022-08-06T06:33:36.801Z,5.50
2022-08-06T06:36:23.080Z,5.18
2022-08-06T06:39:05.838Z,5.00
2022-08-06T06:41:33.501Z,4.00
2022-08-06T06:44:57.442Z,4.30
2022-08-06T06:47:17.388Z,3.80
2022-08-06T06:50:02.784Z,3.60
2022-08-06T06:52:36.129Z,3.72
2022-08-06T06:55:15.738Z,3.53
2022-08-06T06:57:51.772Z,3.50
2022-08-06T07:00:45.378Z,3.90
2022-08-06T07:03:09.784Z,3.88
2022-08-06T07:06:05.825Z,3.50
2022-08-06T07:08:37.086Z,3.40
2022-08-06T07:11:06.715Z,3.30
2022-08-06T07:13:48.016Z,3.67
2022-08-06T07:16:36.443Z,3.17
2022-08-06T07:19:10.352Z,3.38
2022-08-06T07:21:40.148Z,3.03
2022-08-06T07:24:38.015Z,3.22
2022-08-06T07:27:00.804Z,3.67
2022-08-06T07:29:48.343Z,3.10
2022-08-06T07:32:30.626Z,2.97
2022-08-06T07:35:05.939Z,3.08
2022-08-06T07:37:43.665Z,3.00
2022-08-06T07:40:21.205Z,3.17
2022-08-06T07:45:38.073Z,2.65
2022-08-06T07:48:14.465Z,2.63
2022-08-06T07:50:49.103Z,3.00
2022-08-06T07:55:44.273Z,2.88
2022-08-06T07:58:16.465Z,3.00
2022-08-06T08:00:49.132Z,2.97
2022-08-06T08:03:56.816Z,3.00
2022-08-06T08:06:26.707Z,3.40
2022-08-06T08:08:54.634Z,2.92
2022-08-06T08:11:38.002Z,2.75
2022-08-06T08:14:17.107Z,3.03
2022-08-06T08:16:46.803Z,3.42
2022-08-06T08:19:34.619Z,3.25
2022-08-06T08:22:07.211Z,2.80
2022-08-06T08:24:35.716Z,3.30
2022-08-06T08:27:16.957Z,3.00
2022-08-06T08:29:54.826Z,3.10
2022-08-06T08:32:22.632Z,2.72
2022-08-06T08:34:54.421Z,2.95
2022-08-06T08:37:22.639Z,3.28
2022-08-06T08:39:55.753Z,3.35
2022-08-06T08:42:44.049Z,2.65
2022-08-06T08:45:15.847Z,2.97
2022-08-06T08:47:53.653Z,2.70
2022-08-06T08:50:24.279Z,2.72
2022-08-06T08:53:01.916Z,2.80
2022-08-06T08:57:06.043Z,2.78
2022-08-06T08:58:40.789Z,2.65
2022-08-06T09:01:16.931Z,2.60
2022-08-06T09:03:56.596Z,2.40
2022-08-06T09:06:29.078Z,2.55
2022-08-06T09:09:05.141Z,2.38
2022-08-06T09:12:03.714Z,2.70
2022-08-06T09:14:33.192Z,2.38
2022-08-06T09:17:03.888Z,2.40
2022-08-06T09:19:38.092Z,2.45
2022-08-06T09:22:06.614Z,2.50
2022-08-06T09:24:36.921Z,2.00
2022-08-06T09:27:47.010Z,2.72
2022-08-06T09:30:25.670Z,2.22
2022-08-06T09:32:57.863Z,2.17
2022-08-06T09:35:43.954Z,1.80
2022-08-06T09:38:17.229Z,2.10
2022-08-06T09:41:15.414Z,2.00
2022-08-06T09:44:02.736Z,2.13
2022-08-06T09:46:40.358Z,1.65
2022-08-06T09:49:48.112Z,1.80
2022-08-06T09:52:23.901Z,1.70
2022-08-06T09:54:52.875Z,1.45
2022-08-06T09:57:24.903Z,1.70
2022-08-06T10:00:01.630Z,1.38
2022-08-06T10:02:34.089Z,1.10
2022-08-06T10:05:17.794Z,1.08
2022-08-06T10:07:46.855Z,1.08
2022-08-06T10:10:14.714Z,1.00
2022-08-06T10:13:13.086Z,0.80
2022-08-06T10:15:58.189Z,0.85
2022-08-06T10:18:55.826Z,0.95
2022-08-06T10:21:41.688Z,1.10
2022-08-06T10:24:25.740Z,1.10
2022-08-06T10:27:14.221Z,1.27
2022-08-06T10:29:45.629Z,1.63
2022-08-06T10:32:30.767Z,1.70
2022-08-06T10:35:04.486Z,2.00
2022-08-06T10:37:50.111Z,1.92
2022-08-06T10:40:30.389Z,2.30
2022-08-06T10:43:04.351Z,1.95
2022-08-06T10:45:48.769Z,1.95
2022-08-06T10:48:57.839Z,2.30
2022-08-06T10:51:06.151Z,2.15
2022-08-06T10:54:01.512Z,2.08
2022-08-06T10:56:28.511Z,2.08
2022-08-06T10:58:59.721Z,2.20
2022-08-06T11:01:54.839Z,2.53
2022-08-06T11:04:34.900Z,2.05
2022-08-06T11:08:08.756Z,2.40
2022-08-06T11:10:35.016Z,2.15
2022-08-06T11:13:08.098Z,2.28
2022-08-06T11:15:37.939Z,1.98
2022-08-06T11:18:07.167Z,2.10
2022-08-06T11:20:37.448Z,2.50
2022-08-06T11:23:30.276Z,2.22
2022-08-06T11:26:08.942Z,2.35
2022-08-06T11:28:35.478Z,2.50
2022-08-06T11:31:04.169Z,2.42
2022-08-06T11:33:33.923Z,3.13
2022-08-06T11:36:24.300Z,2.42
2022-08-06T11:38:58.305Z,2.40
2022-08-06T11:41:54.257Z,2.47
2022-08-06T11:44:32.049Z,2.60
2022-08-06T11:47:36.560Z,2.88
2022-08-06T11:50:03.992Z,2.92
2022-08-06T11:52:40.123Z,3.17
2022-08-06T11:55:12.849Z,2.97
2022-08-06T11:57:51.737Z,3.42
2022-08-06T12:00:23.946Z,3.13
2022-08-06T12:02:56.510Z,3.35
2022-08-06T12:05:23.840Z,2.88
2022-08-06T12:08:42.027Z,2.47
2022-08-06T12:11:26.102Z,2.65
2022-08-06T12:14:32.068Z,2.55
2022-08-06T12:16:53.563Z,2.85
2022-08-06T12:19:24.194Z,3.20
2022-08-06T12:21:57.070Z,3.22
2022-08-06T12:24:45.215Z,3.47
2022-08-06T12:27:15.146Z,3.05
2022-08-06T12:29:42.734Z,2.85
2022-08-06T12:32:26.493Z,3.10
2022-08-06T12:34:58.712Z,3.40
2022-08-06T12:37:51.409Z,3.30
2022-08-06T12:40:34.402Z,3.43
2022-08-06T12:46:07.005Z,3.50
2022-08-06T12:48:31.507Z,3.45
2022-08-06T12:51:11.641Z,3.55
2022-08-06T12:53:54.573Z,3.60
2022-08-06T12:56:29.556Z,3.15
2022-08-06T12:58:58.712Z,3.50
2022-08-06T13:02:11.893Z,3.83
2022-08-06T13:04:21.358Z,4.47
2022-08-06T13:06:49.698Z,4.40
2022-08-06T13:09:32.742Z,3.92
2022-08-06T13:12:13.208Z,4.32
2022-08-06T13:15:02.784Z,3.22
2022-08-06T13:17:59.864Z,3.50
2022-08-06T13:20:43.921Z,3.70
2022-08-06T13:23:22.797Z,4.03
2022-08-06T13:25:53.085Z,3.97
2022-08-06T13:28:29.372Z,3.70
2022-08-06T13:31:01.325Z,3.72
2022-08-06T13:33:32.038Z,3.67
2022-08-06T13:36:07.995Z,3.80
2022-08-06T13:38:42.069Z,3.70
2022-08-06T13:41:09.165Z,3.10
2022-08-06T13:43:45.066Z,3.40
2022-08-06T13:46:28.279Z,3.20
2022-08-06T13:48:58.744Z,3.13
2022-08-06T13:51:28.015Z,3.45
2022-08-06T13:53:57.106Z,3.22
2022-08-06T13:56:29.075Z,3.33
2022-08-06T13:58:58.288Z,2.78
2022-08-06T14:01:34.870Z,3.53
2022-08-06T14:04:11.713Z,3.17
2022-08-06T14:06:44.698Z,3.15
2022-08-06T14:09:19.409Z,3.37
2022-08-06T14:11:51.594Z,3.15
2022-08-06T14:14:21.725Z,3.20
2022-08-06T14:16:49.847Z,3.65
2022-08-06T14:20:16.020Z,3.33
2022-08-06T14:22:04.014Z,3.38
2022-08-06T14:24:33.036Z,3.67
2022-08-06T14:27:15.247Z,3.45
2022-08-06T14:30:29.435Z,3.40
2022-08-06T14:32:31.432Z,3.80
2022-08-06T14:34:58.900Z,3.75
2022-08-06T14:37:43.480Z,3.40
2022-08-06T14:40:36.584Z,4.05
2022-08-06T14:43:55.395Z,3.90
2022-08-06T14:46:26.612Z,4.03
2022-08-06T14:48:57.525Z,4.53
2022-08-06T14:51:24.683Z,5.55
2022-08-06T14:54:11.286Z,4.40
2022-08-06T14:56:40.749Z,5.13
2022-08-06T14:59:14.961Z,5.78
2022-08-06T15:01:41.754Z,5.60
2022-08-06T15:04:24.080Z,5.90
2022-08-06T15:06:58.773Z,6.18
2022-08-06T15:09:28.379Z,5.80
2022-08-06T15:12:24.854Z,5.15
2022-08-06T15:15:01.336Z,4.72
2022-08-06T15:18:05.548Z,4.45
2022-08-06T15:20:25.372Z,4.68
2022-08-06T15:22:55.831Z,5.00
2022-08-06T15:25:59.929Z,5.10
2022-08-06T15:28:10.458Z,5.20
2022-08-06T15:30:37.332Z,4.72
2022-08-06T15:33:11.631Z,4.63
2022-08-06T15:35:53.045Z,4.87
2022-08-06T15:38:24.204Z,5.20
2022-08-06T15:40:50.828Z,4.50
2022-08-06T15:43:17.355Z,4.70
2022-08-06T15:45:52.240Z,4.07
2022-08-06T15:48:28.228Z,4.30
2022-08-06T15:53:43.412Z,5.18
2022-08-06T15:56:20.783Z,5.90
2022-08-06T15:59:12.268Z,4.88
2022-08-06T16:01:52.491Z,4.55
2022-08-06T16:04:28.782Z,4.95
2022-08-06T16:06:57.440Z,3.92
2022-08-06T16:09:27.264Z,3.75
2022-08-06T16:11:58.541Z,3.45
2022-08-06T16:14:33.386Z,7.03
2022-08-06T16:17:09.771Z,11.45
2022-08-06T16:19:49.094Z,5.15
2022-08-06T16:22:17.604Z,5.97
2022-08-06T16:24:48.751Z,5.85
2022-08-06T16:27:17.601Z,4.07
2022-08-06T16:29:48.351Z,4.05
2022-08-06T16:32:19.742Z,5.00
2022-08-06T16:34:51.093Z,3.55
2022-08-06T16:37:37.788Z,6.93
2022-08-06T16:40:07.048Z,3.55
2022-08-06T16:42:33.900Z,2.45
2022-08-06T16:45:09.738Z,3.70
2022-08-06T16:48:21.687Z,3.70
2022-08-06T16:50:36.365Z,6.43
2022-08-06T16:54:08.228Z,4.20
2022-08-06T16:55:53.065Z,4.05
2022-08-06T16:58:35.275Z,4.97
2022-08-06T17:02:15.050Z,5.18
2022-08-06T17:06:42.007Z,1.52
2022-08-06T17:12:02.841Z,1.92
2022-08-06T17:14:37.054Z,1.92
2022-08-06T17:17:19.066Z,1.92
2022-08-06T17:19:55.668Z,1.85
2022-08-06T17:22:38.922Z,1.80
2022-08-06T17:25:21.598Z,1.88
2022-08-06T17:27:57.467Z,2.67
2022-08-06T17:30:25.089Z,2.40
2022-08-06T17:32:54.497Z,2.05
2022-08-06T17:35:21.542Z,2.50
2022-08-06T17:37:51.204Z,2.78
2022-08-06T17:40:30.563Z,2.58
2022-08-06T17:43:12.566Z,2.63
2022-08-06T17:46:02.710Z,3.03
2022-08-06T17:48:41.707Z,3.20
2022-08-06T17:51:09.780Z,3.17
2022-08-06T17:53:52.730Z,3.05
2022-08-06T17:56:30.117Z,3.60
2022-08-06T17:59:17.705Z,3.28
2022-08-06T18:01:51.199Z,3.38
2022-08-06T18:04:22.550Z,3.60
2022-08-06T18:07:10.729Z,3.47
2022-08-06T18:10:09.822Z,3.85
2022-08-06T18:12:27.711Z,3.85
2022-08-06T18:14:54.573Z,4.32
2022-08-06T18:17:22.201Z,4.13
2022-08-06T18:20:09.462Z,3.83
2022-08-06T18:22:38.018Z,3.90
2022-08-06T18:25:15.224Z,3.72
2022-08-06T18:27:53.872Z,3.72
2022-08-06T18:30:37.568Z,3.70
2022-08-06T18:33:12.672Z,3.90
2022-08-06T18:35:55.833Z,3.70
2022-08-06T18:38:31.844Z,3.58
2022-08-06T18:41:06.122Z,3.53
2022-08-06T18:43:54.694Z,3.75
2022-08-06T18:46:56.346Z,2.90
2022-08-06T18:49:16.817Z,3.10
2022-08-06T18:51:47.596Z,2.45
2022-08-06T18:54:23.618Z,2.83
2022-08-06T18:56:56.302Z,2.67
2022-08-06T18:59:28.862Z,2.60
2022-08-06T19:01:58.433Z,2.90
2022-08-06T19:04:28.383Z,2.50
2022-08-06T19:07:00.680Z,2.58
2022-08-06T19:09:34.786Z,2.17
2022-08-06T19:12:12.388Z,2.17
2022-08-06T19:14:44.270Z,2.22
2022-08-06T19:17:48.160Z,1.98
2022-08-06T19:20:21.050Z,2.00
2022-08-06T19:22:53.166Z,1.90
2022-08-06T19:25:21.131Z,2.13
2022-08-06T19:28:29.601Z,1.90
2022-08-06T19:30:45.503Z,1.80
2022-08-06T19:33:15.917Z,1.92
2022-08-06T19:36:02.844Z,2.22
2022-08-06T19:38:32.498Z,2.40
2022-08-06T19:41:00.188Z,2.40
2022-08-06T19:44:27.854Z,2.60
2022-08-06T19:46:30.086Z,2.50
2022-08-06T19:48:58.626Z,2.33
2022-08-06T19:52:02.586Z,2.30
2022-08-06T19:54:17.579Z,2.58
2022-08-06T19:56:45.113Z,2.38
2022-08-06T20:00:52.025Z,2.33
2022-08-06T20:02:09.208Z,2.13
2022-08-06T20:04:42.900Z,1.92
2022-08-06T20:07:23.855Z,2.00
2022-08-06T20:10:01.309Z,2.15
2022-08-06T20:12:38.810Z,2.65
2022-08-06T20:15:09.337Z,2.00
2022-08-06T20:17:49.386Z,1.77
2022-08-06T20:20:19.354Z,2.00
2022-08-06T20:22:56.394Z,2.15
2022-08-06T20:25:23.675Z,2.47
2022-08-06T20:29:10.547Z,2.08
2022-08-06T20:30:39.871Z,2.33
2022-08-06T20:33:11.436Z,2.55
2022-08-06T20:35:38.295Z,1.95
2022-08-06T20:38:07.108Z,2.30
2022-08-06T20:40:37.822Z,2.10
2022-08-06T20:44:05.058Z,2.05
2022-08-06T20:46:07.806Z,2.38
2022-08-06T20:48:38.101Z,2.45
2022-08-06T20:51:04.998Z,2.53
2022-08-06T20:53:33.017Z,2.55
2022-08-06T20:56:01.004Z,2.17
2022-08-06T20:58:32.549Z,2.10
2022-08-06T21:01:00.638Z,2.30
2022-08-06T21:05:10.497Z,2.35
2022-08-06T21:06:13.942Z,2.33
2022-08-06T21:08:50.625Z,2.25
2022-08-06T21:11:17.597Z,2.25
2022-08-06T21:13:59.909Z,2.60
2022-08-06T21:16:34.758Z,2.45
2022-08-06T21:19:03.820Z,2.08
2022-08-06T21:21:35.193Z,2.28
2022-08-06T21:24:04.826Z,2.40
2022-08-06T21:26:35.745Z,2.70
2022-08-06T21:30:07.235Z,2.30
2022-08-06T21:31:57.442Z,2.25
2022-08-06T21:34:25.481Z,2.45
2022-08-06T21:36:52.274Z,2.30
2022-08-06T21:39:22.307Z,2.28
2022-08-06T21:41:59.113Z,2.33
2022-08-06T21:44:30.588Z,2.17
2022-08-06T21:46:58.852Z,2.55
2022-08-06T21:49:58.120Z,2.17
2022-08-06T21:52:28.296Z,2.55
2022-08-06T21:54:59.702Z,2.33
2022-08-06T21:57:48.308Z,2.38
2022-08-06T22:00:39.718Z,2.90
2022-08-06T22:03:13.740Z,2.58
2022-08-06T22:06:21.881Z,2.70
2022-08-06T22:08:52.975Z,2.67
2022-08-06T22:12:39.675Z,2.80
2022-08-06T22:14:15.820Z,2.75
2022-08-06T22:16:48.402Z,2.63
2022-08-06T22:19:17.027Z,3.22
2022-08-06T22:21:51.192Z,2.70
2022-08-06T22:24:19.548Z,2.60
2022-08-06T22:26:46.038Z,2.92
2022-08-06T22:29:17.342Z,2.53
2022-08-06T22:31:57.290Z,3.00
2022-08-06T22:34:37.079Z,2.80
2022-08-06T22:37:06.477Z,3.00
2022-08-06T22:39:34.702Z,2.85
2022-08-06T22:42:08.813Z,2.60
2022-08-06T22:45:21.253Z,2.80
2022-08-06T22:47:23.410Z,3.10
2022-08-06T22:49:59.305Z,2.72
2022-08-06T22:52:58.666Z,2.63
2022-08-06T22:55:17.931Z,3.00
2022-08-06T22:58:04.988Z,3.20
2022-08-06T23:00:36.364Z,3.10
2022-08-06T23:03:03.858Z,3.25
2022-08-06T23:05:44.478Z,3.10
2022-08-06T23:08:14.338Z,3.17
2022-08-06T23:10:48.675Z,2.67
2022-08-06T23:13:25.801Z,3.25
2022-08-06T23:15:58.403Z,3.10
2022-08-06T23:18:30.460Z,3.28
2022-08-06T23:21:22.153Z,2.90
2022-08-06T23:23:54.598Z,3.30
2022-08-06T23:26:31.054Z,3.47
2022-08-06T23:28:59.133Z,3.10
2022-08-06T23:31:28.166Z,3.10
2022-08-06T23:34:01.687Z,3.27
2022-08-06T23:36:29.555Z,2.67
2022-08-06T23:38:57.474Z,2.78
2022-08-06T23:41:58.250Z,2.85
2022-08-06T23:44:18.359Z,3.03
2022-08-06T23:46:51.270Z,2.95
2022-08-06T23:49:32.229Z,2.83
2022-08-06T23:52:15.153Z,2.58
2022-08-06T23:54:53.322Z,2.78
2022-08-06T23:57:32.528Z,2.65
